sensor_id;sensor_type;location;lat;lon;timestamp;P1;durP1;ratioP1;P2;durP2;ratioP2
3781;SDS011;6881;49.962;7.718;2023-07-31T00:01:00;3.40;;;2.00;;
3781;SDS011;6881;49.962;7.718;2023-07-31T00:03:25;3.30;;;2.47;;
3781;SDS011;6881;49.962;7.718;2023-07-31T00:05:51;6.10;;;2.57;;
3781;SDS011;6881;49.962;7.718;2023-07-31T00:08:16;4.93;;;3.20;;
3781;SDS011;6881;49.962;7.718;2023-07-31T00:10:41;2.93;;;2.50;;
3781;SDS011;6881;49.962;7.718;2023-07-31T00:13:07;9.03;;;3.07;;
3781;SDS011;6881;49.962;7.718;2023-07-31T00:15:32;5.33;;;2.40;;
3781;SDS011;6881;49.962;7.718;2023-07-31T00:17:57;6.63;;;2.50;;
3781;SDS011;6881;49.962;7.718;2023-07-31T00:20:23;3.70;;;2.60;;
3781;SDS011;6881;49.962;7.718;2023-07-31T00:22:49;4.57;;;2.97;;
3781;SDS011;6881;49.962;7.718;2023-07-31T00:25:14;3.83;;;2.30;;
3781;SDS011;6881;49.962;7.718;2023-07-31T00:27:39;3.30;;;2.40;;
3781;SDS011;6881;49.962;7.718;2023-07-31T00:30:09;5.17;;;3.27;;
3781;SDS011;6881;49.962;7.718;2023-07-31T00:32:35;7.20;;;2.53;;
3781;SDS011;6881;49.962;7.718;2023-07-31T00:35:00;4.40;;;2.67;;
3781;SDS011;6881;49.962;7.718;2023-07-31T00:37:26;5.87;;;2.60;;
3781;SDS011;6881;49.962;7.718;2023-07-31T00:39:51;6.00;;;2.87;;
3781;SDS011;6881;49.962;7.718;2023-07-31T00:42:16;5.80;;;2.47;;
3781;SDS011;6881;49.962;7.718;2023-07-31T00:44:41;4.03;;;2.50;;
3781;SDS011;6881;49.962;7.718;2023-07-31T00:47:07;4.20;;;2.83;;
3781;SDS011;6881;49.962;7.718;2023-07-31T00:49:32;3.90;;;2.20;;
3781;SDS011;6881;49.962;7.718;2023-07-31T00:51:58;6.37;;;3.30;;
3781;SDS011;6881;49.962;7.718;2023-07-31T00:54:24;3.10;;;2.80;;
3781;SDS011;6881;49.962;7.718;2023-07-31T00:56:49;4.43;;;2.57;;
3781;SDS011;6881;49.962;7.718;2023-07-31T00:59:15;4.00;;;2.43;;
3781;SDS011;6881;49.962;7.718;2023-07-31T01:01:41;5.10;;;3.40;;
3781;SDS011;6881;49.962;7.718;2023-07-31T01:04:06;7.77;;;3.23;;
3781;SDS011;6881;49.962;7.718;2023-07-31T01:06:35;3.67;;;2.40;;
3781;SDS011;6881;49.962;7.718;2023-07-31T01:09:09;5.00;;;2.30;;
3781;SDS011;6881;49.962;7.718;2023-07-31T01:11:43;7.50;;;2.73;;
3781;SDS011;6881;49.962;7.718;2023-07-31T01:14:16;3.70;;;2.50;;
3781;SDS011;6881;49.962;7.718;2023-07-31T01:16:42;7.10;;;2.97;;
3781;SDS011;6881;49.962;7.718;2023-07-31T01:19:07;3.40;;;2.20;;
3781;SDS011;6881;49.962;7.718;2023-07-31T01:24:22;4.20;;;2.80;;
3781;SDS011;6881;49.962;7.718;2023-07-31T01:27:12;3.87;;;2.80;;
3781;SDS011;6881;49.962;7.718;2023-07-31T01:32:05;4.90;;;2.43;;
3781;SDS011;6881;49.962;7.718;2023-07-31T01:34:31;4.80;;;2.30;;
3781;SDS011;6881;49.962;7.718;2023-07-31T01:36:57;5.50;;;2.50;;
3781;SDS011;6881;49.962;7.718;2023-07-31T01:39:23;4.63;;;2.70;;
3781;SDS011;6881;49.962;7.718;2023-07-31T01:41:48;7.50;;;3.07;;
3781;SDS011;6881;49.962;7.718;2023-07-31T01:44:14;5.60;;;2.80;;
3781;SDS011;6881;49.962;7.718;2023-07-31T01:46:39;3.50;;;2.33;;
3781;SDS011;6881;49.962;7.718;2023-07-31T01:49:05;4.70;;;3.00;;
3781;SDS011;6881;49.962;7.718;2023-07-31T01:51:31;3.03;;;2.10;;
3781;SDS011;6881;49.962;7.718;2023-07-31T01:53:59;6.23;;;2.90;;
3781;SDS011;6881;49.962;7.718;2023-07-31T01:56:25;4.40;;;2.60;;
3781;SDS011;6881;49.962;7.718;2023-07-31T01:58:50;3.33;;;2.40;;
3781;SDS011;6881;49.962;7.718;2023-07-31T02:01:15;5.57;;;3.10;;
3781;SDS011;6881;49.962;7.718;2023-07-31T02:03:40;7.23;;;3.10;;
3781;SDS011;6881;49.962;7.718;2023-07-31T02:06:07;6.10;;;2.33;;
3781;SDS011;6881;49.962;7.718;2023-07-31T02:08:32;4.00;;;2.17;;
3781;SDS011;6881;49.962;7.718;2023-07-31T02:10:57;3.80;;;2.30;;
3781;SDS011;6881;49.962;7.718;2023-07-31T02:13:23;3.77;;;2.40;;
3781;SDS011;6881;49.962;7.718;2023-07-31T02:15:48;3.90;;;2.60;;
3781;SDS011;6881;49.962;7.718;2023-07-31T02:18:13;5.80;;;3.00;;
3781;SDS011;6881;49.962;7.718;2023-07-31T02:20:39;8.53;;;2.73;;
3781;SDS011;6881;49.962;7.718;2023-07-31T02:23:04;5.57;;;2.80;;
3781;SDS011;6881;49.962;7.718;2023-07-31T02:25:29;6.23;;;3.07;;
3781;SDS011;6881;49.962;7.718;2023-07-31T02:27:55;5.63;;;2.67;;
3781;SDS011;6881;49.962;7.718;2023-07-31T02:30:20;6.20;;;2.10;;
3781;SDS011;6881;49.962;7.718;2023-07-31T02:32:45;4.17;;;2.70;;
3781;SDS011;6881;49.962;7.718;2023-07-31T02:35:10;6.07;;;3.40;;
3781;SDS011;6881;49.962;7.718;2023-07-31T02:37:40;2.67;;;2.17;;
3781;SDS011;6881;49.962;7.718;2023-07-31T02:40:06;4.83;;;3.10;;
3781;SDS011;6881;49.962;7.718;2023-07-31T02:42:31;6.23;;;3.30;;
3781;SDS011;6881;49.962;7.718;2023-07-31T02:44:57;3.87;;;2.63;;
3781;SDS011;6881;49.962;7.718;2023-07-31T02:47:22;4.50;;;2.80;;
3781;SDS011;6881;49.962;7.718;2023-07-31T02:49:47;5.87;;;3.30;;
3781;SDS011;6881;49.962;7.718;2023-07-31T02:52:13;4.87;;;2.97;;
3781;SDS011;6881;49.962;7.718;2023-07-31T02:54:38;6.60;;;3.60;;
3781;SDS011;6881;49.962;7.718;2023-07-31T02:57:03;7.70;;;2.63;;
3781;SDS011;6881;49.962;7.718;2023-07-31T02:59:29;5.10;;;3.43;;
3781;SDS011;6881;49.962;7.718;2023-07-31T03:01:54;4.80;;;2.90;;
3781;SDS011;6881;49.962;7.718;2023-07-31T03:04:20;5.70;;;3.30;;
3781;SDS011;6881;49.962;7.718;2023-07-31T03:06:45;6.83;;;3.33;;
3781;SDS011;6881;49.962;7.718;2023-07-31T03:09:10;3.83;;;2.80;;
3781;SDS011;6881;49.962;7.718;2023-07-31T03:11:35;4.80;;;2.80;;
3781;SDS011;6881;49.962;7.718;2023-07-31T03:14:01;8.20;;;2.90;;
3781;SDS011;6881;49.962;7.718;2023-07-31T03:16:26;4.17;;;3.03;;
3781;SDS011;6881;49.962;7.718;2023-07-31T03:18:51;4.80;;;3.00;;
3781;SDS011;6881;49.962;7.718;2023-07-31T03:21:17;7.27;;;3.57;;
3781;SDS011;6881;49.962;7.718;2023-07-31T03:23:42;4.60;;;2.80;;
3781;SDS011;6881;49.962;7.718;2023-07-31T03:26:08;5.27;;;2.73;;
3781;SDS011;6881;49.962;7.718;2023-07-31T03:28:34;5.70;;;3.60;;
3781;SDS011;6881;49.962;7.718;2023-07-31T03:30:59;3.50;;;2.73;;
3781;SDS011;6881;49.962;7.718;2023-07-31T03:33:25;6.17;;;2.83;;
3781;SDS011;6881;49.962;7.718;2023-07-31T03:35:50;4.47;;;3.43;;
3781;SDS011;6881;49.962;7.718;2023-07-31T03:38:15;6.23;;;2.87;;
3781;SDS011;6881;49.962;7.718;2023-07-31T03:40:41;5.43;;;3.00;;
3781;SDS011;6881;49.962;7.718;2023-07-31T03:43:06;6.73;;;2.73;;
3781;SDS011;6881;49.962;7.718;2023-07-31T03:45:31;7.40;;;3.30;;
3781;SDS011;6881;49.962;7.718;2023-07-31T03:47:56;5.10;;;2.90;;
3781;SDS011;6881;49.962;7.718;2023-07-31T03:50:22;7.97;;;3.73;;
3781;SDS011;6881;49.962;7.718;2023-07-31T03:52:47;4.80;;;3.33;;
3781;SDS011;6881;49.962;7.718;2023-07-31T03:55:12;7.10;;;3.90;;
3781;SDS011;6881;49.962;7.718;2023-07-31T03:57:38;8.20;;;3.00;;
3781;SDS011;6881;49.962;7.718;2023-07-31T04:00:03;5.87;;;2.83;;
3781;SDS011;6881;49.962;7.718;2023-07-31T04:02:29;3.70;;;2.67;;
3781;SDS011;6881;49.962;7.718;2023-07-31T04:04:54;6.23;;;3.40;;
3781;SDS011;6881;49.962;7.718;2023-07-31T04:07:19;4.60;;;3.23;;
3781;SDS011;6881;49.962;7.718;2023-07-31T04:09:45;4.30;;;3.20;;
3781;SDS011;6881;49.962;7.718;2023-07-31T04:12:10;4.87;;;3.23;;
3781;SDS011;6881;49.962;7.718;2023-07-31T04:14:35;3.77;;;3.10;;
3781;SDS011;6881;49.962;7.718;2023-07-31T04:17:01;5.87;;;3.83;;
3781;SDS011;6881;49.962;7.718;2023-07-31T04:19:27;5.33;;;3.37;;
3781;SDS011;6881;49.962;7.718;2023-07-31T04:21:52;6.00;;;3.87;;
3781;SDS011;6881;49.962;7.718;2023-07-31T04:24:17;6.70;;;4.37;;
3781;SDS011;6881;49.962;7.718;2023-07-31T04:26:49;9.80;;;3.53;;
3781;SDS011;6881;49.962;7.718;2023-07-31T04:29:14;6.03;;;3.70;;
3781;SDS011;6881;49.962;7.718;2023-07-31T04:31:40;6.60;;;4.00;;
3781;SDS011;6881;49.962;7.718;2023-07-31T04:34:06;5.43;;;3.47;;
3781;SDS011;6881;49.962;7.718;2023-07-31T04:36:31;4.53;;;2.97;;
3781;SDS011;6881;49.962;7.718;2023-07-31T04:38:56;6.83;;;2.93;;
3781;SDS011;6881;49.962;7.718;2023-07-31T04:41:22;7.37;;;3.63;;
3781;SDS011;6881;49.962;7.718;2023-07-31T04:43:47;4.23;;;2.53;;
3781;SDS011;6881;49.962;7.718;2023-07-31T04:46:12;7.30;;;3.30;;
3781;SDS011;6881;49.962;7.718;2023-07-31T04:48:37;5.30;;;3.13;;
3781;SDS011;6881;49.962;7.718;2023-07-31T04:51:03;5.03;;;3.30;;
3781;SDS011;6881;49.962;7.718;2023-07-31T04:53:28;4.63;;;2.90;;
3781;SDS011;6881;49.962;7.718;2023-07-31T04:55:53;5.17;;;3.30;;
3781;SDS011;6881;49.962;7.718;2023-07-31T04:58:19;4.57;;;3.10;;
3781;SDS011;6881;49.962;7.718;2023-07-31T05:00:44;5.67;;;3.20;;
3781;SDS011;6881;49.962;7.718;2023-07-31T05:03:09;5.80;;;3.57;;
3781;SDS011;6881;49.962;7.718;2023-07-31T05:05:36;4.73;;;2.70;;
3781;SDS011;6881;49.962;7.718;2023-07-31T05:08:02;5.77;;;3.40;;
3781;SDS011;6881;49.962;7.718;2023-07-31T05:10:27;5.43;;;3.10;;
3781;SDS011;6881;49.962;7.718;2023-07-31T05:12:52;4.53;;;3.07;;
3781;SDS011;6881;49.962;7.718;2023-07-31T05:15:17;6.53;;;3.60;;
3781;SDS011;6881;49.962;7.718;2023-07-31T05:17:43;3.63;;;2.83;;
3781;SDS011;6881;49.962;7.718;2023-07-31T05:20:08;4.97;;;2.90;;
3781;SDS011;6881;49.962;7.718;2023-07-31T05:22:34;8.60;;;3.90;;
3781;SDS011;6881;49.962;7.718;2023-07-31T05:24:59;4.53;;;3.20;;
3781;SDS011;6881;49.962;7.718;2023-07-31T05:27:25;5.47;;;2.97;;
3781;SDS011;6881;49.962;7.718;2023-07-31T05:29:50;5.33;;;2.93;;
3781;SDS011;6881;49.962;7.718;2023-07-31T05:32:15;7.20;;;3.67;;
3781;SDS011;6881;49.962;7.718;2023-07-31T05:34:40;4.80;;;2.60;;
3781;SDS011;6881;49.962;7.718;2023-07-31T05:37:06;9.17;;;3.37;;
3781;SDS011;6881;49.962;7.718;2023-07-31T05:39:31;4.20;;;3.07;;
3781;SDS011;6881;49.962;7.718;2023-07-31T05:41:56;4.33;;;3.13;;
3781;SDS011;6881;49.962;7.718;2023-07-31T05:44:22;3.60;;;2.90;;
3781;SDS011;6881;49.962;7.718;2023-07-31T05:46:47;4.13;;;2.93;;
3781;SDS011;6881;49.962;7.718;2023-07-31T05:49:12;7.10;;;3.27;;
3781;SDS011;6881;49.962;7.718;2023-07-31T05:51:37;6.23;;;3.23;;
3781;SDS011;6881;49.962;7.718;2023-07-31T05:54:03;4.87;;;4.37;;
3781;SDS011;6881;49.962;7.718;2023-07-31T05:56:28;3.80;;;2.57;;
3781;SDS011;6881;49.962;7.718;2023-07-31T05:58:53;7.47;;;3.10;;
3781;SDS011;6881;49.962;7.718;2023-07-31T06:01:19;8.00;;;3.33;;
3781;SDS011;6881;49.962;7.718;2023-07-31T06:03:46;5.67;;;3.07;;
3781;SDS011;6881;49.962;7.718;2023-07-31T06:06:11;4.40;;;3.50;;
3781;SDS011;6881;49.962;7.718;2023-07-31T06:08:36;7.40;;;3.67;;
3781;SDS011;6881;49.962;7.718;2023-07-31T06:11:02;5.03;;;2.93;;
3781;SDS011;6881;49.962;7.718;2023-07-31T06:13:27;5.67;;;3.20;;
3781;SDS011;6881;49.962;7.718;2023-07-31T06:15:53;9.50;;;3.27;;
3781;SDS011;6881;49.962;7.718;2023-07-31T06:18:18;5.20;;;2.90;;
3781;SDS011;6881;49.962;7.718;2023-07-31T06:20:43;5.83;;;3.30;;
3781;SDS011;6881;49.962;7.718;2023-07-31T06:23:09;5.23;;;3.37;;
3781;SDS011;6881;49.962;7.718;2023-07-31T06:25:34;6.13;;;2.80;;
3781;SDS011;6881;49.962;7.718;2023-07-31T06:27:59;6.33;;;3.03;;
3781;SDS011;6881;49.962;7.718;2023-07-31T06:30:25;5.93;;;2.40;;
3781;SDS011;6881;49.962;7.718;2023-07-31T06:32:50;5.77;;;3.10;;
3781;SDS011;6881;49.962;7.718;2023-07-31T06:35:15;6.13;;;3.43;;
3781;SDS011;6881;49.962;7.718;2023-07-31T06:37:41;4.67;;;2.53;;
3781;SDS011;6881;49.962;7.718;2023-07-31T06:40:09;4.90;;;3.10;;
3781;SDS011;6881;49.962;7.718;2023-07-31T06:42:35;4.47;;;3.10;;
3781;SDS011;6881;49.962;7.718;2023-07-31T06:45:00;5.07;;;2.93;;
3781;SDS011;6881;49.962;7.718;2023-07-31T06:47:26;7.40;;;2.73;;
3781;SDS011;6881;49.962;7.718;2023-07-31T06:49:51;6.50;;;3.10;;
3781;SDS011;6881;49.962;7.718;2023-07-31T06:52:17;6.53;;;3.67;;
3781;SDS011;6881;49.962;7.718;2023-07-31T06:54:42;7.80;;;3.00;;
3781;SDS011;6881;49.962;7.718;2023-07-31T06:57:07;4.90;;;2.60;;
3781;SDS011;6881;49.962;7.718;2023-07-31T06:59:33;6.73;;;3.03;;
3781;SDS011;6881;49.962;7.718;2023-07-31T07:01:58;7.70;;;2.50;;
3781;SDS011;6881;49.962;7.718;2023-07-31T07:04:23;5.57;;;3.33;;
3781;SDS011;6881;49.962;7.718;2023-07-31T07:06:49;6.33;;;2.80;;
3781;SDS011;6881;49.962;7.718;2023-07-31T07:09:14;6.47;;;3.37;;
3781;SDS011;6881;49.962;7.718;2023-07-31T07:11:39;6.10;;;3.20;;
3781;SDS011;6881;49.962;7.718;2023-07-31T07:14:04;5.33;;;3.20;;
3781;SDS011;6881;49.962;7.718;2023-07-31T07:16:30;5.90;;;3.00;;
3781;SDS011;6881;49.962;7.718;2023-07-31T07:18:55;4.40;;;2.90;;
3781;SDS011;6881;49.962;7.718;2023-07-31T07:21:20;11.37;;;3.07;;
3781;SDS011;6881;49.962;7.718;2023-07-31T07:23:46;4.80;;;3.17;;
3781;SDS011;6881;49.962;7.718;2023-07-31T07:26:11;3.50;;;2.80;;
3781;SDS011;6881;49.962;7.718;2023-07-31T07:28:36;5.07;;;2.50;;
3781;SDS011;6881;49.962;7.718;2023-07-31T07:31:02;4.33;;;2.90;;
3781;SDS011;6881;49.962;7.718;2023-07-31T07:33:27;4.37;;;3.07;;
3781;SDS011;6881;49.962;7.718;2023-07-31T07:35:53;9.20;;;3.40;;
3781;SDS011;6881;49.962;7.718;2023-07-31T07:38:18;3.17;;;2.70;;
3781;SDS011;6881;49.962;7.718;2023-07-31T07:40:44;4.53;;;2.90;;
3781;SDS011;6881;49.962;7.718;2023-07-31T07:43:11;7.40;;;3.27;;
3781;SDS011;6881;49.962;7.718;2023-07-31T07:45:37;4.37;;;3.20;;
3781;SDS011;6881;49.962;7.718;2023-07-31T07:48:02;4.30;;;2.50;;
3781;SDS011;6881;49.962;7.718;2023-07-31T07:50:28;6.40;;;2.70;;
3781;SDS011;6881;49.962;7.718;2023-07-31T07:52:53;5.07;;;2.70;;
3781;SDS011;6881;49.962;7.718;2023-07-31T07:55:18;4.47;;;3.10;;
3781;SDS011;6881;49.962;7.718;2023-07-31T07:57:43;5.47;;;2.87;;
3781;SDS011;6881;49.962;7.718;2023-07-31T08:00:10;3.90;;;2.70;;
3781;SDS011;6881;49.962;7.718;2023-07-31T08:02:35;4.83;;;2.90;;
3781;SDS011;6881;49.962;7.718;2023-07-31T08:05:01;5.47;;;2.30;;
3781;SDS011;6881;49.962;7.718;2023-07-31T08:07:26;5.00;;;2.67;;
3781;SDS011;6881;49.962;7.718;2023-07-31T08:09:52;6.00;;;3.00;;
3781;SDS011;6881;49.962;7.718;2023-07-31T08:12:17;3.97;;;2.57;;
3781;SDS011;6881;49.962;7.718;2023-07-31T08:14:42;4.60;;;2.83;;
3781;SDS011;6881;49.962;7.718;2023-07-31T08:17:07;5.20;;;3.20;;
3781;SDS011;6881;49.962;7.718;2023-07-31T08:19:33;5.80;;;3.50;;
3781;SDS011;6881;49.962;7.718;2023-07-31T08:21:59;5.60;;;3.27;;
3781;SDS011;6881;49.962;7.718;2023-07-31T08:24:24;4.70;;;2.60;;
3781;SDS011;6881;49.962;7.718;2023-07-31T08:26:49;4.67;;;2.63;;
3781;SDS011;6881;49.962;7.718;2023-07-31T08:29:15;4.60;;;2.87;;
3781;SDS011;6881;49.962;7.718;2023-07-31T08:31:40;4.13;;;2.80;;
3781;SDS011;6881;49.962;7.718;2023-07-31T08:34:05;6.03;;;3.27;;
3781;SDS011;6881;49.962;7.718;2023-07-31T08:36:31;4.30;;;3.37;;
3781;SDS011;6881;49.962;7.718;2023-07-31T08:38:56;5.30;;;2.93;;
3781;SDS011;6881;49.962;7.718;2023-07-31T08:41:21;8.20;;;3.13;;
3781;SDS011;6881;49.962;7.718;2023-07-31T08:43:47;4.33;;;3.20;;
3781;SDS011;6881;49.962;7.718;2023-07-31T08:46:12;3.80;;;2.43;;
3781;SDS011;6881;49.962;7.718;2023-07-31T08:48:39;5.63;;;2.60;;
3781;SDS011;6881;49.962;7.718;2023-07-31T08:51:07;4.20;;;2.87;;
3781;SDS011;6881;49.962;7.718;2023-07-31T08:53:32;4.77;;;2.80;;
3781;SDS011;6881;49.962;7.718;2023-07-31T08:55:58;5.53;;;3.17;;
3781;SDS011;6881;49.962;7.718;2023-07-31T08:58:24;4.80;;;3.30;;
3781;SDS011;6881;49.962;7.718;2023-07-31T09:00:50;4.10;;;2.43;;
3781;SDS011;6881;49.962;7.718;2023-07-31T09:03:17;6.63;;;2.67;;
3781;SDS011;6881;49.962;7.718;2023-07-31T09:05:44;4.63;;;3.03;;
3781;SDS011;6881;49.962;7.718;2023-07-31T09:08:14;6.70;;;3.20;;
3781;SDS011;6881;49.962;7.718;2023-07-31T09:10:43;4.10;;;2.70;;
3781;SDS011;6881;49.962;7.718;2023-07-31T09:13:11;5.00;;;3.13;;
3781;SDS011;6881;49.962;7.718;2023-07-31T09:15:37;7.77;;;3.43;;
3781;SDS011;6881;49.962;7.718;2023-07-31T09:18:03;3.93;;;2.77;;
3781;SDS011;6881;49.962;7.718;2023-07-31T09:20:30;3.93;;;3.10;;
3781;SDS011;6881;49.962;7.718;2023-07-31T09:22:56;6.17;;;3.03;;
3781;SDS011;6881;49.962;7.718;2023-07-31T09:25:30;5.23;;;3.07;;
3781;SDS011;6881;49.962;7.718;2023-07-31T09:30:24;6.03;;;2.80;;
3781;SDS011;6881;49.962;7.718;2023-07-31T09:32:50;7.07;;;3.20;;
3781;SDS011;6881;49.962;7.718;2023-07-31T09:35:19;5.23;;;3.40;;
3781;SDS011;6881;49.962;7.718;2023-07-31T09:37:53;5.77;;;3.17;;
3781;SDS011;6881;49.962;7.718;2023-07-31T09:40:27;3.50;;;2.70;;
3781;SDS011;6881;49.962;7.718;2023-07-31T09:42:55;4.73;;;3.07;;
3781;SDS011;6881;49.962;7.718;2023-07-31T09:45:22;6.77;;;3.60;;
3781;SDS011;6881;49.962;7.718;2023-07-31T09:47:47;5.57;;;3.00;;
3781;SDS011;6881;49.962;7.718;2023-07-31T09:50:16;5.73;;;3.40;;
3781;SDS011;6881;49.962;7.718;2023-07-31T09:52:42;4.37;;;2.83;;
3781;SDS011;6881;49.962;7.718;2023-07-31T09:55:08;4.90;;;3.17;;
3781;SDS011;6881;49.962;7.718;2023-07-31T09:57:34;3.13;;;2.50;;
3781;SDS011;6881;49.962;7.718;2023-07-31T10:00:02;5.40;;;2.97;;
3781;SDS011;6881;49.962;7.718;2023-07-31T10:02:28;5.23;;;2.80;;
3781;SDS011;6881;49.962;7.718;2023-07-31T10:04:56;6.90;;;3.27;;
3781;SDS011;6881;49.962;7.718;2023-07-31T10:07:23;3.53;;;2.60;;
3781;SDS011;6881;49.962;7.718;2023-07-31T10:09:50;6.33;;;2.53;;
3781;SDS011;6881;49.962;7.718;2023-07-31T10:12:16;6.20;;;3.60;;
3781;SDS011;6881;49.962;7.718;2023-07-31T10:14:44;4.00;;;2.57;;
3781;SDS011;6881;49.962;7.718;2023-07-31T10:17:09;5.20;;;3.33;;
3781;SDS011;6881;49.962;7.718;2023-07-31T10:19:35;5.83;;;3.20;;
3781;SDS011;6881;49.962;7.718;2023-07-31T10:22:02;4.20;;;3.03;;
3781;SDS011;6881;49.962;7.718;2023-07-31T10:24:28;4.97;;;2.80;;
3781;SDS011;6881;49.962;7.718;2023-07-31T10:26:54;8.07;;;3.83;;
3781;SDS011;6881;49.962;7.718;2023-07-31T10:29:22;4.17;;;3.03;;
3781;SDS011;6881;49.962;7.718;2023-07-31T10:31:49;5.30;;;3.03;;
3781;SDS011;6881;49.962;7.718;2023-07-31T10:34:15;3.70;;;2.80;;
3781;SDS011;6881;49.962;7.718;2023-07-31T10:36:41;3.93;;;3.30;;
3781;SDS011;6881;49.962;7.718;2023-07-31T10:39:32;7.03;;;4.03;;
3781;SDS011;6881;49.962;7.718;2023-07-31T10:41:58;3.90;;;2.70;;
3781;SDS011;6881;49.962;7.718;2023-07-31T10:44:23;4.10;;;2.60;;
3781;SDS011;6881;49.962;7.718;2023-07-31T10:46:49;5.13;;;3.13;;
3781;SDS011;6881;49.962;7.718;2023-07-31T10:49:14;4.73;;;3.07;;
3781;SDS011;6881;49.962;7.718;2023-07-31T10:51:46;3.67;;;2.73;;
3781;SDS011;6881;49.962;7.718;2023-07-31T10:54:12;5.60;;;3.40;;
3781;SDS011;6881;49.962;7.718;2023-07-31T10:56:40;5.87;;;3.07;;
3781;SDS011;6881;49.962;7.718;2023-07-31T10:59:05;5.63;;;2.90;;
3781;SDS011;6881;49.962;7.718;2023-07-31T11:04:15;5.17;;;2.90;;
3781;SDS011;6881;49.962;7.718;2023-07-31T11:06:55;4.30;;;2.77;;
3781;SDS011;6881;49.962;7.718;2023-07-31T11:09:24;5.67;;;3.10;;
3781;SDS011;6881;49.962;7.718;2023-07-31T11:11:53;4.20;;;2.60;;
3781;SDS011;6881;49.962;7.718;2023-07-31T11:14:18;3.20;;;2.70;;
3781;SDS011;6881;49.962;7.718;2023-07-31T11:16:44;4.83;;;3.80;;
3781;SDS011;6881;49.962;7.718;2023-07-31T11:19:09;5.40;;;3.40;;
3781;SDS011;6881;49.962;7.718;2023-07-31T11:21:34;3.10;;;2.80;;
3781;SDS011;6881;49.962;7.718;2023-07-31T11:24:00;5.57;;;2.97;;
3781;SDS011;6881;49.962;7.718;2023-07-31T11:26:25;3.40;;;2.80;;
3781;SDS011;6881;49.962;7.718;2023-07-31T11:28:50;6.10;;;2.97;;
3781;SDS011;6881;49.962;7.718;2023-07-31T11:31:16;5.37;;;2.70;;
3781;SDS011;6881;49.962;7.718;2023-07-31T11:33:45;4.03;;;2.50;;
3781;SDS011;6881;49.962;7.718;2023-07-31T11:36:14;3.33;;;2.50;;
3781;SDS011;6881;49.962;7.718;2023-07-31T11:38:40;5.03;;;3.23;;
3781;SDS011;6881;49.962;7.718;2023-07-31T11:41:06;3.63;;;3.13;;
3781;SDS011;6881;49.962;7.718;2023-07-31T11:43:32;4.27;;;2.93;;
3781;SDS011;6881;49.962;7.718;2023-07-31T11:45:58;3.77;;;2.87;;
3781;SDS011;6881;49.962;7.718;2023-07-31T11:48:27;6.33;;;2.80;;
3781;SDS011;6881;49.962;7.718;2023-07-31T11:50:55;5.40;;;2.93;;
3781;SDS011;6881;49.962;7.718;2023-07-31T11:53:25;5.80;;;2.80;;
3781;SDS011;6881;49.962;7.718;2023-07-31T11:55:53;3.80;;;2.57;;
3781;SDS011;6881;49.962;7.718;2023-07-31T11:58:19;5.00;;;3.47;;
3781;SDS011;6881;49.962;7.718;2023-07-31T12:00:45;6.07;;;3.07;;
3781;SDS011;6881;49.962;7.718;2023-07-31T12:03:11;4.03;;;3.40;;
3781;SDS011;6881;49.962;7.718;2023-07-31T12:05:37;4.17;;;3.17;;
3781;SDS011;6881;49.962;7.718;2023-07-31T12:08:03;5.27;;;3.10;;
3781;SDS011;6881;49.962;7.718;2023-07-31T12:10:34;4.40;;;2.90;;
3781;SDS011;6881;49.962;7.718;2023-07-31T12:15:29;5.90;;;3.70;;
3781;SDS011;6881;49.962;7.718;2023-07-31T12:18:05;2.83;;;2.43;;
3781;SDS011;6881;49.962;7.718;2023-07-31T12:20:31;3.67;;;2.40;;
3781;SDS011;6881;49.962;7.718;2023-07-31T12:22:57;3.40;;;2.40;;
3781;SDS011;6881;49.962;7.718;2023-07-31T12:25:23;5.67;;;2.80;;
3781;SDS011;6881;49.962;7.718;2023-07-31T12:27:53;6.27;;;2.57;;
3781;SDS011;6881;49.962;7.718;2023-07-31T12:30:28;3.63;;;2.60;;
3781;SDS011;6881;49.962;7.718;2023-07-31T12:32:53;3.73;;;2.57;;
3781;SDS011;6881;49.962;7.718;2023-07-31T12:35:19;3.90;;;2.20;;
3781;SDS011;6881;49.962;7.718;2023-07-31T12:37:44;5.00;;;2.37;;
3781;SDS011;6881;49.962;7.718;2023-07-31T12:40:10;4.23;;;2.50;;
3781;SDS011;6881;49.962;7.718;2023-07-31T12:42:35;3.80;;;2.27;;
3781;SDS011;6881;49.962;7.718;2023-07-31T12:45:01;6.90;;;2.53;;
3781;SDS011;6881;49.962;7.718;2023-07-31T12:47:26;3.60;;;2.63;;
3781;SDS011;6881;49.962;7.718;2023-07-31T12:49:51;2.60;;;1.87;;
3781;SDS011;6881;49.962;7.718;2023-07-31T12:52:17;3.30;;;1.93;;
3781;SDS011;6881;49.962;7.718;2023-07-31T12:54:42;5.20;;;2.90;;
3781;SDS011;6881;49.962;7.718;2023-07-31T12:57:07;3.80;;;2.60;;
3781;SDS011;6881;49.962;7.718;2023-07-31T12:59:32;2.53;;;2.07;;
3781;SDS011;6881;49.962;7.718;2023-07-31T13:01:58;4.30;;;2.37;;
3781;SDS011;6881;49.962;7.718;2023-07-31T13:04:23;5.90;;;1.63;;
3781;SDS011;6881;49.962;7.718;2023-07-31T13:06:48;6.80;;;2.20;;
3781;SDS011;6881;49.962;7.718;2023-07-31T13:09:14;2.60;;;1.77;;
3781;SDS011;6881;49.962;7.718;2023-07-31T13:11:42;2.17;;;1.67;;
3781;SDS011;6881;49.962;7.718;2023-07-31T13:14:07;3.73;;;2.30;;
3781;SDS011;6881;49.962;7.718;2023-07-31T13:16:33;2.80;;;1.90;;
3781;SDS011;6881;49.962;7.718;2023-07-31T13:18:58;3.20;;;2.33;;
3781;SDS011;6881;49.962;7.718;2023-07-31T13:21:23;4.40;;;2.20;;
3781;SDS011;6881;49.962;7.718;2023-07-31T13:23:48;2.83;;;2.00;;
3781;SDS011;6881;49.962;7.718;2023-07-31T13:26:14;3.70;;;2.23;;
3781;SDS011;6881;49.962;7.718;2023-07-31T13:28:39;2.83;;;2.47;;
3781;SDS011;6881;49.962;7.718;2023-07-31T13:31:04;3.13;;;2.20;;
3781;SDS011;6881;49.962;7.718;2023-07-31T13:33:30;3.37;;;2.27;;
3781;SDS011;6881;49.962;7.718;2023-07-31T13:35:55;3.10;;;2.40;;
3781;SDS011;6881;49.962;7.718;2023-07-31T13:38:20;3.20;;;2.17;;
3781;SDS011;6881;49.962;7.718;2023-07-31T13:40:45;4.40;;;2.43;;
3781;SDS011;6881;49.962;7.718;2023-07-31T13:43:11;3.70;;;2.50;;
3781;SDS011;6881;49.962;7.718;2023-07-31T13:45:36;6.60;;;2.93;;
3781;SDS011;6881;49.962;7.718;2023-07-31T13:48:01;3.97;;;2.53;;
3781;SDS011;6881;49.962;7.718;2023-07-31T13:50:27;4.80;;;2.70;;
3781;SDS011;6881;49.962;7.718;2023-07-31T13:52:52;3.20;;;2.27;;
3781;SDS011;6881;49.962;7.718;2023-07-31T13:55:17;2.63;;;2.07;;
3781;SDS011;6881;49.962;7.718;2023-07-31T13:57:43;3.67;;;2.70;;
3781;SDS011;6881;49.962;7.718;2023-07-31T14:00:08;2.87;;;2.07;;
3781;SDS011;6881;49.962;7.718;2023-07-31T14:02:34;4.20;;;2.27;;
3781;SDS011;6881;49.962;7.718;2023-07-31T14:04:59;2.60;;;2.00;;
3781;SDS011;6881;49.962;7.718;2023-07-31T14:07:24;5.03;;;2.50;;
3781;SDS011;6881;49.962;7.718;2023-07-31T14:09:50;3.80;;;1.93;;
3781;SDS011;6881;49.962;7.718;2023-07-31T14:12:15;2.93;;;2.40;;
3781;SDS011;6881;49.962;7.718;2023-07-31T14:14:40;2.67;;;1.97;;
3781;SDS011;6881;49.962;7.718;2023-07-31T14:17:05;5.73;;;3.00;;
3781;SDS011;6881;49.962;7.718;2023-07-31T14:19:31;4.67;;;2.10;;
3781;SDS011;6881;49.962;7.718;2023-07-31T14:21:58;7.03;;;1.97;;
3781;SDS011;6881;49.962;7.718;2023-07-31T14:24:23;3.10;;;1.90;;
3781;SDS011;6881;49.962;7.718;2023-07-31T14:26:49;3.70;;;1.60;;
3781;SDS011;6881;49.962;7.718;2023-07-31T14:29:14;2.43;;;1.63;;
3781;SDS011;6881;49.962;7.718;2023-07-31T14:31:39;2.27;;;1.33;;
3781;SDS011;6881;49.962;7.718;2023-07-31T14:34:05;1.93;;;1.07;;
3781;SDS011;6881;49.962;7.718;2023-07-31T14:36:30;1.67;;;1.03;;
3781;SDS011;6881;49.962;7.718;2023-07-31T14:38:55;2.20;;;1.47;;
3781;SDS011;6881;49.962;7.718;2023-07-31T14:41:20;3.00;;;1.37;;
3781;SDS011;6881;49.962;7.718;2023-07-31T14:43:46;2.27;;;1.30;;
3781;SDS011;6881;49.962;7.718;2023-07-31T14:46:11;2.70;;;1.10;;
3781;SDS011;6881;49.962;7.718;2023-07-31T14:48:36;2.00;;;1.17;;
3781;SDS011;6881;49.962;7.718;2023-07-31T14:51:02;2.20;;;1.60;;
3781;SDS011;6881;49.962;7.718;2023-07-31T14:53:27;2.10;;;1.47;;
3781;SDS011;6881;49.962;7.718;2023-07-31T14:55:52;2.30;;;1.53;;
3781;SDS011;6881;49.962;7.718;2023-07-31T14:58:18;2.60;;;1.77;;
3781;SDS011;6881;49.962;7.718;2023-07-31T15:00:43;1.80;;;1.43;;
3781;SDS011;6881;49.962;7.718;2023-07-31T15:03:09;3.67;;;1.87;;
3781;SDS011;6881;49.962;7.718;2023-07-31T15:05:34;3.60;;;1.80;;
3781;SDS011;6881;49.962;7.718;2023-07-31T15:07:59;3.17;;;1.50;;
3781;SDS011;6881;49.962;7.718;2023-07-31T15:10:25;2.90;;;1.90;;
3781;SDS011;6881;49.962;7.718;2023-07-31T15:12:50;2.27;;;1.70;;
3781;SDS011;6881;49.962;7.718;2023-07-31T15:15:15;2.73;;;2.40;;
3781;SDS011;6881;49.962;7.718;2023-07-31T15:17:41;2.53;;;2.07;;
3781;SDS011;6881;49.962;7.718;2023-07-31T15:20:07;2.73;;;2.20;;